Alto Paraiso de Goias, Brazil
Current Conditions -  °F | °C
As of 1:00 PM on Friday 24 Oct 2014 (Local Time) from SBBR Reporting Station
Scattered Clouds Scattered Clouds  
Wind Chill: 84°   Ceiling: Unl
Heat Index: 84°   Visibility: 6mi
Dew Point: 55°   Wind: 12mph
Humidity: 37%   Direction: 60°ENE
Pressure: 30.09"   Gusts: NA
Location:  14.12°S, 47.52°W
Report Text: SBBR 241500Z 06010KT 9999 SCT035 FEW040TCU SCT100 29/13 Q1019
Loading
Personal Weather Stations






























Interactive Weather Map
Tropical Storm Tracking
New forecast layout! Learn more

10-Day Weather Forecast

Advertisements
Track Severe Weather on mobile